createdAt,value
2018-04-26T00:02:25.598Z,98895.50
2018-04-26T00:04:53.851Z,98899.09
2018-04-26T00:07:22.148Z,98889.91
2018-04-26T00:09:50.406Z,98894.43
2018-04-26T00:12:18.712Z,98894.84
2018-04-26T00:14:46.959Z,98885.97
2018-04-26T00:17:15.275Z,98861.17
2018-04-26T00:19:43.526Z,98899.55
2018-04-26T00:22:11.824Z,98901.78
2018-04-26T00:24:40.070Z,98902.33
2018-04-26T00:27:08.375Z,98904.47
2018-04-26T00:29:36.604Z,98889.27
2018-04-26T00:32:04.880Z,98893.34
2018-04-26T00:34:33.149Z,98900.42
2018-04-26T00:37:01.434Z,98911.89
2018-04-26T00:39:29.697Z,98915.07
2018-04-26T00:41:57.993Z,98910.42
2018-04-26T00:44:26.275Z,98904.30
2018-04-26T00:46:54.555Z,98900.75
2018-04-26T00:49:22.879Z,98898.78
2018-04-26T00:52:01.146Z,98903.80
2018-04-26T00:54:30.315Z,98906.26
2018-04-26T00:56:58.578Z,98905.38
2018-04-26T00:59:26.951Z,98910.41
2018-04-26T01:01:55.199Z,98908.90
2018-04-26T01:04:23.606Z,98918.27
2018-04-26T01:06:51.854Z,98918.86
2018-04-26T01:09:20.140Z,98921.73
2018-04-26T01:11:48.431Z,98921.28
2018-04-26T01:14:16.719Z,98924.18
2018-04-26T01:16:45.003Z,98932.43
2018-04-26T01:19:13.305Z,98930.76
2018-04-26T01:21:41.555Z,98936.08
2018-04-26T01:24:09.899Z,98941.03
2018-04-26T01:26:38.182Z,98938.91
2018-04-26T01:29:06.454Z,98940.51
2018-04-26T01:31:34.734Z,98933.09
2018-04-26T01:34:03.001Z,98931.77
2018-04-26T01:36:43.396Z,98926.20
2018-04-26T01:39:11.648Z,98924.50
2018-04-26T01:41:39.956Z,98928.88
2018-04-26T01:44:08.232Z,98925.19
2018-04-26T01:46:36.546Z,98923.63
2018-04-26T01:49:04.834Z,98921.52
2018-04-26T01:51:33.110Z,98921.11
2018-04-26T01:54:01.417Z,98927.84
2018-04-26T01:56:29.690Z,98930.61
2018-04-26T01:58:57.962Z,98930.77
2018-04-26T02:01:26.224Z,98929.11
2018-04-26T02:03:54.494Z,98932.81
2018-04-26T02:06:22.790Z,98938.27
2018-04-26T02:08:51.037Z,98932.97
2018-04-26T02:11:19.326Z,98942.92
2018-04-26T02:13:47.666Z,98938.03
2018-04-26T02:16:15.914Z,98937.50
2018-04-26T02:18:44.195Z,98945.73
2018-04-26T02:21:12.457Z,98945.05
2018-04-26T02:23:41.554Z,98952.74
2018-04-26T02:26:09.826Z,98947.05
2018-04-26T02:28:38.105Z,98953.78
2018-04-26T02:31:06.358Z,98943.23
2018-04-26T02:33:34.629Z,98951.70
2018-04-26T02:36:02.898Z,98951.70
2018-04-26T02:38:31.203Z,98951.42
2018-04-26T02:40:59.451Z,98949.58
2018-04-26T02:43:27.754Z,98944.16
2018-04-26T02:45:56.010Z,98939.42
2018-04-26T02:48:24.377Z,98938.37
2018-04-26T02:50:52.643Z,98941.02
2018-04-26T02:53:20.933Z,98943.94
2018-04-26T02:55:49.192Z,98952.78
2018-04-26T02:58:17.539Z,98963.89
2018-04-26T03:00:45.783Z,98962.17
2018-04-26T03:03:14.066Z,98962.04
2018-04-26T03:05:42.381Z,98970.91
2018-04-26T03:08:10.699Z,98974.59
2018-04-26T03:10:38.959Z,98973.55
2018-04-26T03:13:07.250Z,98971.31
2018-04-26T03:15:35.520Z,98969.98
2018-04-26T03:18:03.877Z,98961.66
2018-04-26T03:20:32.143Z,98971.58
2018-04-26T03:23:00.431Z,98971.97
2018-04-26T03:25:28.721Z,98967.34
2018-04-26T03:27:57.001Z,98978.84
2018-04-26T03:30:25.296Z,98979.23
2018-04-26T03:32:53.579Z,98977.10
2018-04-26T03:35:22.019Z,98981.73
2018-04-26T03:37:50.281Z,98980.16
2018-04-26T03:40:18.600Z,98989.30
2018-04-26T03:42:46.856Z,98979.50
2018-04-26T03:45:15.149Z,98985.45
2018-04-26T03:47:43.394Z,98978.58
2018-04-26T03:50:11.678Z,98977.98
2018-04-26T03:52:39.970Z,98983.02
2018-04-26T03:55:08.239Z,98977.91
2018-04-26T03:57:36.526Z,98983.86
2018-04-26T04:00:16.507Z,98992.12
2018-04-26T04:02:56.724Z,98988.97
2018-04-26T04:05:36.686Z,98994.10
2018-04-26T04:08:04.995Z,98993.05
2018-04-26T04:10:33.246Z,98998.41
2018-04-26T04:13:01.518Z,99000.57
2018-04-26T04:15:29.766Z,99003.70
2018-04-26T04:17:58.050Z,99002.94
2018-04-26T04:20:26.322Z,99002.67
2018-04-26T04:22:54.617Z,99011.66
2018-04-26T04:25:22.890Z,99014.04
2018-04-26T04:27:51.208Z,99013.75
2018-04-26T04:30:19.473Z,99013.87
2018-04-26T04:32:47.727Z,99013.31
2018-04-26T04:35:16.020Z,99010.30
2018-04-26T04:37:44.302Z,99014.80
2018-04-26T04:40:12.582Z,99013.22
2018-04-26T04:42:40.873Z,99018.37
2018-04-26T04:45:09.155Z,99013.11
2018-04-26T04:47:37.516Z,99015.52
2018-04-26T04:50:05.795Z,99015.30
2018-04-26T04:52:34.105Z,99015.30
2018-04-26T04:55:02.381Z,99017.75
2018-04-26T04:57:30.658Z,99024.88
2018-04-26T04:59:59.780Z,99032.44
2018-04-26T05:02:28.034Z,99038.95
2018-04-26T05:04:56.310Z,99043.00
2018-04-26T05:07:24.727Z,99043.13
2018-04-26T05:09:53.242Z,99040.47
2018-04-26T05:12:21.494Z,99046.14
2018-04-26T05:14:49.809Z,99050.20
2018-04-26T05:17:19.091Z,99054.82
2018-04-26T05:19:47.440Z,99058.94
2018-04-26T05:22:15.642Z,99059.62
2018-04-26T05:24:43.948Z,99064.13
2018-04-26T05:27:12.234Z,99064.92
2018-04-26T05:29:40.556Z,99064.52
2018-04-26T05:32:08.857Z,99074.37
2018-04-26T05:34:37.151Z,99076.36
2018-04-26T05:37:05.434Z,99084.03
2018-04-26T05:39:33.857Z,99082.50
2018-04-26T05:42:02.417Z,99081.86
2018-04-26T05:44:30.725Z,99079.47
2018-04-26T05:46:59.006Z,99094.77
2018-04-26T05:49:27.347Z,99095.72
2018-04-26T05:51:55.664Z,99103.84
2018-04-26T05:54:23.918Z,99099.20
2018-04-26T05:56:52.215Z,99103.56
2018-04-26T05:59:20.494Z,99103.71
2018-04-26T06:01:48.781Z,99104.38
2018-04-26T06:04:17.077Z,99108.19
2018-04-26T06:06:45.387Z,99114.55
2018-04-26T06:11:48.112Z,99108.36
2018-04-26T06:14:16.395Z,99118.36
2018-04-26T06:16:44.794Z,99115.23
2018-04-26T06:19:13.054Z,99126.77
2018-04-26T06:21:41.359Z,99132.50
2018-04-26T06:24:09.661Z,99125.00
2018-04-26T06:26:38.016Z,99119.24
2018-04-26T06:29:06.256Z,99137.50
2018-04-26T06:31:34.506Z,99137.02
2018-04-26T06:34:02.805Z,99134.96
2018-04-26T06:36:31.086Z,99144.27
2018-04-26T06:38:59.434Z,99134.23
2018-04-26T06:41:27.882Z,99139.42
2018-04-26T06:43:56.197Z,99150.25
2018-04-26T06:46:24.477Z,99148.33
2018-04-26T06:48:52.787Z,99150.72
2018-04-26T06:51:21.019Z,99154.73
2018-04-26T06:53:49.290Z,99153.68
2018-04-26T06:56:17.579Z,99153.86
2018-04-26T06:58:45.839Z,99149.07
2018-04-26T07:01:14.093Z,99148.19
2018-04-26T07:03:42.387Z,99146.25
2018-04-26T07:06:10.648Z,99149.96
2018-04-26T07:08:38.962Z,99147.52
2018-04-26T07:11:07.195Z,99119.11
2018-04-26T07:13:35.459Z,99154.33
2018-04-26T07:16:03.740Z,99147.73
2018-04-26T07:18:32.008Z,99155.53
2018-04-26T07:21:00.403Z,99160.72
2018-04-26T07:23:28.679Z,99150.91
2018-04-26T07:25:57.144Z,99147.58
2018-04-26T07:28:25.398Z,99152.77
2018-04-26T07:30:53.674Z,99142.17
2018-04-26T07:33:21.970Z,99140.33
2018-04-26T07:35:50.230Z,99152.38
2018-04-26T07:38:18.531Z,99144.31
2018-04-26T07:40:46.944Z,99159.80
2018-04-26T07:43:15.206Z,99170.66
2018-04-26T07:45:43.499Z,99165.87
2018-04-26T07:48:11.745Z,99165.10
2018-04-26T07:50:40.032Z,99160.33
2018-04-26T07:53:08.367Z,99161.53
2018-04-26T07:55:36.604Z,99168.56
2018-04-26T07:58:04.849Z,99175.98
2018-04-26T08:00:33.119Z,99181.59
2018-04-26T08:03:01.374Z,99182.30
2018-04-26T08:05:29.657Z,99184.27
2018-04-26T08:07:57.978Z,99177.42
2018-04-26T08:10:26.238Z,99191.58
2018-04-26T08:12:54.566Z,99175.05
2018-04-26T08:15:22.792Z,99188.95
2018-04-26T08:17:51.074Z,99188.44
2018-04-26T08:20:19.343Z,99197.44
2018-04-26T08:22:47.672Z,99179.81
2018-04-26T08:25:15.926Z,99180.49
2018-04-26T08:27:44.354Z,99193.48
2018-04-26T08:30:12.649Z,99204.44
2018-04-26T08:32:40.958Z,99197.66
2018-04-26T08:35:09.233Z,99189.99
2018-04-26T08:37:37.506Z,99192.41
2018-04-26T08:40:06.122Z,99196.36
2018-04-26T08:42:34.399Z,99194.73
2018-04-26T08:45:03.282Z,99194.48
2018-04-26T08:47:31.628Z,99189.03
2018-04-26T08:49:59.901Z,99197.34
2018-04-26T08:52:28.304Z,99202.64
2018-04-26T08:54:56.450Z,99197.62
2018-04-26T08:57:24.707Z,99215.34
2018-04-26T08:59:52.986Z,99205.70
2018-04-26T09:02:21.250Z,99200.95
2018-04-26T09:04:49.544Z,99200.28
2018-04-26T09:07:17.794Z,99206.78
2018-04-26T09:09:46.087Z,99204.08
2018-04-26T09:12:14.429Z,99209.74
2018-04-26T09:14:42.723Z,99218.97
2018-04-26T09:17:11.938Z,99209.05
2018-04-26T09:19:40.230Z,99235.11
2018-04-26T09:22:08.593Z,99223.05
2018-04-26T09:24:36.928Z,99222.77
2018-04-26T09:27:05.228Z,99223.64
2018-04-26T09:29:33.494Z,99227.75
2018-04-26T09:32:02.134Z,99236.91
2018-04-26T09:34:31.539Z,99237.63
2018-04-26T09:37:00.113Z,99237.88
2018-04-26T09:39:28.429Z,99224.73
2018-04-26T09:41:56.715Z,99234.92
2018-04-26T09:44:25.146Z,99227.34
2018-04-26T09:46:53.368Z,99244.13
2018-04-26T09:49:21.648Z,99234.72
2018-04-26T09:51:49.926Z,99226.91
2018-04-26T09:54:18.254Z,99218.05
2018-04-26T09:56:46.567Z,99230.39
2018-04-26T09:59:14.855Z,99230.91
2018-04-26T10:01:43.346Z,99228.67
2018-04-26T10:04:14.517Z,99214.08
2018-04-26T10:06:48.462Z,99220.91
2018-04-26T10:09:16.842Z,99224.00
2018-04-26T10:11:45.144Z,99232.43
2018-04-26T10:14:13.434Z,99228.60
2018-04-26T10:16:41.683Z,99227.02
2018-04-26T10:19:09.983Z,99235.31
2018-04-26T10:21:38.293Z,99226.16
2018-04-26T10:24:06.658Z,99204.52
2018-04-26T10:26:34.992Z,99233.15
2018-04-26T10:29:03.270Z,99237.49
2018-04-26T10:31:31.569Z,99230.20
2018-04-26T10:33:59.919Z,99232.88
2018-04-26T10:36:28.186Z,99237.89
2018-04-26T10:38:56.736Z,99226.33
2018-04-26T10:41:24.978Z,99222.63
2018-04-26T10:43:53.263Z,99218.85
2018-04-26T10:46:21.527Z,99216.72
2018-04-26T10:48:49.836Z,99233.12
2018-04-26T10:51:18.094Z,99224.02
2018-04-26T10:53:46.386Z,99221.59
2018-04-26T10:56:14.659Z,99210.29
2018-04-26T10:58:43.213Z,99223.52
2018-04-26T11:01:11.538Z,99219.79
2018-04-26T11:03:40.898Z,99224.58
2018-04-26T11:06:09.198Z,99215.13
2018-04-26T11:08:37.453Z,99215.64
2018-04-26T11:11:06.010Z,99212.23
2018-04-26T11:13:34.270Z,99221.33
2018-04-26T11:16:02.561Z,99212.42
2018-04-26T11:18:31.503Z,99206.73
2018-04-26T11:20:59.778Z,99195.86
2018-04-26T11:23:28.059Z,99204.30
2018-04-26T11:25:56.334Z,99198.69
2018-04-26T11:28:24.596Z,99212.20
2018-04-26T11:30:52.988Z,99195.09
2018-04-26T11:33:21.233Z,99210.16
2018-04-26T11:35:49.511Z,99195.58
2018-04-26T11:38:17.913Z,99201.65
2018-04-26T11:40:46.325Z,99189.30
2018-04-26T11:43:14.647Z,99197.42
2018-04-26T11:45:43.018Z,99191.27
2018-04-26T11:48:11.329Z,99183.20
2018-04-26T11:50:39.662Z,99188.83
2018-04-26T11:53:07.915Z,99192.42
2018-04-26T11:55:36.185Z,99193.87
2018-04-26T11:58:04.866Z,99205.81
2018-04-26T12:00:33.303Z,99177.44
2018-04-26T12:03:02.049Z,99189.88
2018-04-26T12:05:30.425Z,99187.81
2018-04-26T12:07:59.297Z,99176.23
2018-04-26T12:10:27.702Z,99191.77
2018-04-26T12:12:55.962Z,99188.10
2018-04-26T12:15:24.214Z,99183.31
2018-04-26T12:17:52.519Z,99206.08
2018-04-26T12:20:20.786Z,99194.66
2018-04-26T12:22:49.080Z,99187.77
2018-04-26T12:25:17.323Z,99188.78
2018-04-26T12:27:45.766Z,99188.41
2018-04-26T12:30:14.148Z,99183.22
2018-04-26T12:32:43.717Z,99189.31
2018-04-26T12:35:12.481Z,99192.44
2018-04-26T12:37:40.780Z,99192.33
2018-04-26T12:40:09.083Z,99192.86
2018-04-26T12:42:37.376Z,99174.00
2018-04-26T12:45:05.643Z,99180.66
2018-04-26T12:47:33.932Z,99163.75
2018-04-26T12:50:02.538Z,99172.84
2018-04-26T12:52:30.830Z,99159.28
2018-04-26T12:54:59.100Z,99172.14
2018-04-26T12:57:27.369Z,99164.90
2018-04-26T12:59:55.625Z,99162.19
2018-04-26T13:02:24.122Z,99165.75
2018-04-26T13:04:52.415Z,99197.03
2018-04-26T13:07:20.676Z,99171.56
2018-04-26T13:09:49.015Z,99159.37
2018-04-26T13:12:17.388Z,99165.39
2018-04-26T13:14:45.690Z,99173.88
2018-04-26T13:17:14.010Z,99168.92
2018-04-26T13:19:42.304Z,99168.30
2018-04-26T13:22:10.662Z,99179.48
2018-04-26T13:24:38.948Z,99170.63
2018-04-26T13:27:07.296Z,99159.12
2018-04-26T13:29:35.704Z,99186.13
2018-04-26T13:32:03.981Z,99167.22
2018-04-26T13:34:32.314Z,99161.77
2018-04-26T13:37:02.008Z,99168.82
2018-04-26T13:39:30.292Z,99179.80
2018-04-26T13:41:58.592Z,99158.67
2018-04-26T13:44:28.333Z,99166.69
2018-04-26T13:46:56.641Z,99178.83
2018-04-26T13:49:24.945Z,99168.02
2018-04-26T13:51:53.276Z,99158.91
2018-04-26T13:54:22.502Z,99157.23
2018-04-26T13:56:50.858Z,99156.81
2018-04-26T13:59:19.105Z,99165.52
2018-04-26T14:01:47.411Z,99165.80
2018-04-26T14:04:15.693Z,99154.23
2018-04-26T14:06:44.038Z,99164.96
2018-04-26T14:09:13.152Z,99161.58
2018-04-26T14:11:41.976Z,99147.06
2018-04-26T14:14:10.512Z,99159.42
2018-04-26T14:16:39.277Z,99162.15
2018-04-26T14:19:07.586Z,99144.73
2018-04-26T14:21:35.830Z,99153.77
2018-04-26T14:24:04.344Z,99150.93
2018-04-26T14:26:33.085Z,99161.30
2018-04-26T14:29:01.409Z,99152.77
2018-04-26T14:31:29.661Z,99167.45
2018-04-26T14:33:57.978Z,99171.98
2018-04-26T14:36:26.290Z,99152.73
2018-04-26T14:38:54.662Z,99144.51
2018-04-26T14:41:24.037Z,99139.72
2018-04-26T14:43:53.212Z,99129.20
2018-04-26T14:46:24.022Z,99134.44
2018-04-26T14:48:52.347Z,99136.51
2018-04-26T14:51:20.757Z,99127.45
2018-04-26T14:53:50.083Z,99111.48
2018-04-26T14:56:18.447Z,99112.53
2018-04-26T14:58:47.610Z,99117.33
2018-04-26T15:01:16.016Z,99115.54
2018-04-26T15:03:44.343Z,99127.95
2018-04-26T15:06:12.699Z,99108.98
2018-04-26T15:08:40.986Z,99101.63
2018-04-26T15:11:09.351Z,99108.01
2018-04-26T15:13:37.599Z,99098.80
2018-04-26T15:16:05.895Z,99095.03
2018-04-26T15:18:34.242Z,99097.64
2018-04-26T15:21:02.531Z,99088.96
2018-04-26T15:23:31.004Z,99087.72
2018-04-26T15:25:59.257Z,99080.52
2018-04-26T15:28:27.589Z,99084.95
2018-04-26T15:30:55.931Z,99091.92
2018-04-26T15:33:24.330Z,99095.91
2018-04-26T15:35:53.777Z,99090.41
2018-04-26T15:38:22.049Z,99100.54
2018-04-26T15:40:51.618Z,99095.11
2018-04-26T15:43:20.877Z,99089.89
2018-04-26T15:45:49.126Z,99094.63
2018-04-26T15:48:17.418Z,99086.78
2018-04-26T15:50:55.686Z,99091.31
2018-04-26T15:53:35.736Z,99090.58
2018-04-26T15:56:15.739Z,99091.83
2018-04-26T16:02:26.874Z,99083.68
2018-04-26T16:05:12.722Z,99099.98
2018-04-26T16:07:58.427Z,99081.23
2018-04-26T16:10:44.183Z,99097.73
2018-04-26T16:13:29.976Z,99092.35
2018-04-26T16:19:34.246Z,99098.70
2018-04-26T16:22:19.855Z,99087.49
2018-04-26T16:24:59.958Z,99097.70
2018-04-26T16:27:44.150Z,99110.16
2018-04-26T16:30:24.123Z,99100.53
2018-04-26T16:33:05.218Z,99095.16
2018-04-26T16:35:45.880Z,99093.41
2018-04-26T16:38:26.027Z,99089.06
2018-04-26T16:40:54.316Z,99086.77
2018-04-26T16:43:22.620Z,99069.67
2018-04-26T16:45:51.144Z,99081.78
2018-04-26T16:48:19.585Z,99094.73
2018-04-26T16:50:47.856Z,99088.62
2018-04-26T16:53:16.143Z,99075.16
2018-04-26T16:55:44.498Z,99085.67
2018-04-26T16:58:12.789Z,99082.22
2018-04-26T17:00:41.075Z,99080.13
2018-04-26T17:03:09.337Z,99092.89
2018-04-26T17:05:37.727Z,99086.68
2018-04-26T17:08:06.058Z,99085.81
2018-04-26T17:10:34.331Z,99085.22
2018-04-26T17:13:02.587Z,99076.77
2018-04-26T17:15:30.869Z,99098.39
2018-04-26T17:17:59.151Z,99092.89
2018-04-26T17:20:27.424Z,99088.36
2018-04-26T17:22:55.688Z,99098.00
2018-04-26T17:25:23.990Z,99090.95
2018-04-26T17:27:52.354Z,99082.47
2018-04-26T17:30:20.668Z,99088.98
2018-04-26T17:32:49.071Z,99090.88
2018-04-26T17:35:17.738Z,99098.15
2018-04-26T17:37:46.219Z,99076.28
2018-04-26T17:40:14.577Z,99079.49
2018-04-26T17:42:42.794Z,99085.68
2018-04-26T17:45:11.118Z,99084.64
2018-04-26T17:47:39.364Z,99087.08
2018-04-26T17:50:07.641Z,99079.30
2018-04-26T17:52:35.912Z,99083.95
2018-04-26T17:55:05.187Z,99083.75
2018-04-26T17:57:33.496Z,99083.97
2018-04-26T18:00:01.758Z,99082.99
2018-04-26T18:02:30.021Z,99084.28
2018-04-26T18:04:58.307Z,99080.77
2018-04-26T18:07:27.528Z,99084.79
2018-04-26T18:09:55.886Z,99087.52
2018-04-26T18:12:24.126Z,99086.72
2018-04-26T18:14:52.437Z,99092.09
2018-04-26T18:17:20.724Z,99088.59
2018-04-26T18:19:49.002Z,99092.23
2018-04-26T18:22:17.307Z,99067.84
2018-04-26T18:24:45.633Z,99089.14
2018-04-26T18:27:13.893Z,99096.42
2018-04-26T18:29:42.168Z,99086.37
2018-04-26T18:32:11.334Z,99095.30
2018-04-26T18:34:39.571Z,99096.95
2018-04-26T18:37:07.834Z,99097.75
2018-04-26T18:39:36.151Z,99110.05
2018-04-26T18:42:04.394Z,99108.14
2018-04-26T18:44:32.658Z,99113.16
2018-04-26T18:47:00.939Z,99117.75
2018-04-26T18:49:29.287Z,99120.88
2018-04-26T18:51:57.554Z,99116.16
2018-04-26T18:54:25.843Z,99117.27
2018-04-26T18:56:54.112Z,99129.79
2018-04-26T18:59:22.413Z,99127.50
2018-04-26T19:01:50.668Z,99125.47
2018-04-26T19:04:19.942Z,99124.44
2018-04-26T19:06:48.202Z,99126.93
2018-04-26T19:09:16.574Z,99133.45
2018-04-26T19:11:45.233Z,99136.03
2018-04-26T19:14:13.537Z,99138.58
2018-04-26T19:16:41.951Z,99139.91
2018-04-26T19:19:10.262Z,99141.23
2018-04-26T19:21:38.549Z,99149.69
2018-04-26T19:24:06.855Z,99146.08
2018-04-26T19:26:35.135Z,99146.14
2018-04-26T19:29:03.425Z,99155.39
2018-04-26T19:31:31.700Z,99155.09
2018-04-26T19:34:00.054Z,99158.77
2018-04-26T19:36:28.295Z,99161.41
2018-04-26T19:38:56.805Z,99161.56
2018-04-26T19:41:25.133Z,99166.18
2018-04-26T19:43:53.412Z,99165.57
2018-04-26T19:46:21.694Z,99165.72
2018-04-26T19:48:49.980Z,99176.17
2018-04-26T19:51:18.303Z,99176.84
2018-04-26T19:53:46.616Z,99173.94
2018-04-26T19:56:14.903Z,99172.66
2018-04-26T19:58:43.191Z,99168.32
2018-04-26T20:01:11.550Z,99173.07
2018-04-26T20:03:42.733Z,99170.16
2018-04-26T20:06:11.102Z,99172.43
2018-04-26T20:08:39.326Z,99171.08
2018-04-26T20:11:07.668Z,99180.77
2018-04-26T20:13:35.936Z,99180.69
2018-04-26T20:16:04.216Z,99178.73
2018-04-26T20:18:32.938Z,99185.16
2018-04-26T20:21:01.226Z,99181.69
2018-04-26T20:23:29.487Z,99177.23
2018-04-26T20:25:57.782Z,99175.78
2018-04-26T20:28:26.079Z,99178.84
2018-04-26T20:30:54.367Z,99178.84
2018-04-26T20:33:22.683Z,99177.61
2018-04-26T20:35:50.997Z,99179.64
2018-04-26T20:38:19.270Z,99175.38
2018-04-26T20:40:47.632Z,99173.37
2018-04-26T20:43:16.121Z,99168.13
2018-04-26T20:45:44.392Z,99170.67
2018-04-26T20:48:13.487Z,99168.01
2018-04-26T20:50:41.805Z,99163.97
2018-04-26T20:53:10.978Z,99161.67
2018-04-26T20:55:39.212Z,99165.44
2018-04-26T20:58:07.494Z,99163.76
2018-04-26T21:00:35.763Z,99164.08
2018-04-26T21:03:04.046Z,99149.66
2018-04-26T21:05:32.320Z,99163.95
2018-04-26T21:08:00.656Z,99159.88
2018-04-26T21:10:29.521Z,99161.61
2018-04-26T21:12:58.713Z,99151.69
2018-04-26T21:15:27.012Z,99150.60
2018-04-26T21:17:55.306Z,99137.33
2018-04-26T21:20:23.575Z,99146.16
2018-04-26T21:22:51.943Z,99144.84
2018-04-26T21:25:21.111Z,99157.63
2018-04-26T21:27:49.405Z,99153.32
2018-04-26T21:30:17.666Z,99152.27
2018-04-26T21:32:45.938Z,99149.50
2018-04-26T21:35:14.236Z,99149.64
2018-04-26T21:37:42.558Z,99150.03
2018-04-26T21:40:10.867Z,99146.59
2018-04-26T21:42:39.146Z,99150.02
2018-04-26T21:45:07.611Z,99157.16
2018-04-26T21:47:35.957Z,99148.83
2018-04-26T21:50:09.811Z,99152.12
2018-04-26T21:52:43.755Z,99149.10
2018-04-26T21:55:17.679Z,99148.44
2018-04-26T21:57:51.606Z,99143.28
2018-04-26T22:00:25.602Z,99150.25
2018-04-26T22:02:53.348Z,99153.02
2018-04-26T22:05:27.527Z,99147.95
2018-04-26T22:07:55.810Z,99146.47
2018-04-26T22:10:24.067Z,99136.28
2018-04-26T22:12:52.365Z,99138.24
2018-04-26T22:15:20.707Z,99136.03
2018-04-26T22:17:49.925Z,99129.20
2018-04-26T22:20:18.176Z,99130.30
2018-04-26T22:22:46.490Z,99120.00
2018-04-26T22:25:14.760Z,99118.95
2018-04-26T22:27:43.107Z,99119.73
2018-04-26T22:30:11.465Z,99115.59
2018-04-26T22:32:39.743Z,99113.01
2018-04-26T22:35:07.995Z,99110.60
2018-04-26T22:37:36.278Z,99113.48
2018-04-26T22:40:04.546Z,99104.23
2018-04-26T22:42:33.388Z,99097.88
2018-04-26T22:45:01.722Z,99091.34
2018-04-26T22:47:29.983Z,99087.61
2018-04-26T22:49:58.493Z,99096.22
2018-04-26T22:52:26.718Z,99092.89
2018-04-26T22:54:54.980Z,99092.50
2018-04-26T22:57:23.493Z,99089.94
2018-04-26T22:59:51.750Z,99097.92
2018-04-26T23:02:20.027Z,99082.58
2018-04-26T23:04:49.065Z,99093.28
2018-04-26T23:07:17.378Z,99087.68
2018-04-26T23:09:45.754Z,99091.89
2018-04-26T23:12:14.066Z,99094.19
2018-04-26T23:14:42.335Z,99096.16
2018-04-26T23:17:10.640Z,99100.05
2018-04-26T23:19:38.946Z,99097.46
2018-04-26T23:22:07.228Z,99099.47
2018-04-26T23:24:35.474Z,99100.91
2018-04-26T23:27:03.809Z,99098.25
2018-04-26T23:29:32.160Z,99100.70
2018-04-26T23:32:00.461Z,99101.31
2018-04-26T23:34:28.708Z,99095.41
2018-04-26T23:36:56.999Z,99097.47
2018-04-26T23:39:25.311Z,99094.31
2018-04-26T23:41:53.598Z,99101.80
2018-04-26T23:44:21.866Z,99097.75
2018-04-26T23:46:50.143Z,99094.53
2018-04-26T23:49:18.421Z,99092.35
2018-04-26T23:51:46.718Z,99096.50
2018-04-26T23:54:15.007Z,99087.57
2018-04-26T23:56:43.351Z,99087.78
2018-04-26T23:59:11.585Z,99087.44
